sensor_id;sensor_type;location;lat;lon;timestamp;pressure;altitude;pressure_sealevel;temperature;humidity
76815;BME280;65768;49.906;19.384;2023-11-18T00:01:40;98294.77;;;5.03;83.00
76815;BME280;65768;49.906;19.384;2023-11-18T00:04:10;98294.45;;;4.96;83.25
76815;BME280;65768;49.906;19.384;2023-11-18T00:06:45;98297.58;;;4.82;83.11
76815;BME280;65768;49.906;19.384;2023-11-18T00:09:14;98290.52;;;5.05;82.56
76815;BME280;65768;49.906;19.384;2023-11-18T00:11:44;98294.58;;;5.02;82.13
76815;BME280;65768;49.906;19.384;2023-11-18T00:14:12;98294.42;;;5.02;81.98
76815;BME280;65768;49.906;19.384;2023-11-18T00:16:41;98295.80;;;5.24;81.74
76815;BME280;65768;49.906;19.384;2023-11-18T00:19:09;98297.45;;;4.99;82.12
76815;BME280;65768;49.906;19.384;2023-11-18T00:21:37;98293.35;;;5.23;82.10
76815;BME280;65768;49.906;19.384;2023-11-18T00:24:06;98294.59;;;5.24;82.03
76815;BME280;65768;49.906;19.384;2023-11-18T00:26:35;98298.67;;;5.22;82.15
76815;BME280;65768;49.906;19.384;2023-11-18T00:29:04;98302.58;;;5.11;82.76
76815;BME280;65768;49.906;19.384;2023-11-18T00:31:32;98304.56;;;5.30;82.25
76815;BME280;65768;49.906;19.384;2023-11-18T00:34:00;98304.33;;;5.27;82.41
76815;BME280;65768;49.906;19.384;2023-11-18T00:36:29;98305.23;;;5.14;82.94
76815;BME280;65768;49.906;19.384;2023-11-18T00:38:58;98309.36;;;4.91;83.69
76815;BME280;65768;49.906;19.384;2023-11-18T00:41:26;98313.36;;;5.07;83.39
76815;BME280;65768;49.906;19.384;2023-11-18T00:43:54;98316.65;;;4.86;83.98
76815;BME280;65768;49.906;19.384;2023-11-18T00:46:23;98318.52;;;4.78;84.18
76815;BME280;65768;49.906;19.384;2023-11-18T00:48:52;98318.77;;;4.87;83.85
76815;BME280;65768;49.906;19.384;2023-11-18T00:51:21;98314.84;;;4.90;84.14
76815;BME280;65768;49.906;19.384;2023-11-18T00:53:49;98320.14;;;4.59;85.15
76815;BME280;65768;49.906;19.384;2023-11-18T00:56:17;98325.59;;;4.77;84.88
76815;BME280;65768;49.906;19.384;2023-11-18T00:58:48;98325.80;;;4.72;84.65
76815;BME280;65768;49.906;19.384;2023-11-18T01:01:18;98320.48;;;4.80;84.53
76815;BME280;65768;49.906;19.384;2023-11-18T01:03:46;98318.11;;;5.03;84.08
76815;BME280;65768;49.906;19.384;2023-11-18T01:06:16;98324.91;;;4.92;84.17
76815;BME280;65768;49.906;19.384;2023-11-18T01:08:45;98327.25;;;4.81;84.42
76815;BME280;65768;49.906;19.384;2023-11-18T01:11:19;98318.88;;;4.99;84.09
76815;BME280;65768;49.906;19.384;2023-11-18T01:13:50;98319.43;;;5.15;83.71
76815;BME280;65768;49.906;19.384;2023-11-18T01:16:19;98322.21;;;5.02;84.06
76815;BME280;65768;49.906;19.384;2023-11-18T01:18:48;98320.04;;;5.12;83.52
76815;BME280;65768;49.906;19.384;2023-11-18T01:21:18;98320.02;;;4.89;84.03
76815;BME280;65768;49.906;19.384;2023-11-18T01:23:47;98319.61;;;4.59;85.26
76815;BME280;65768;49.906;19.384;2023-11-18T01:26:18;98306.45;;;4.99;84.54
76815;BME280;65768;49.906;19.384;2023-11-18T01:28:46;98307.92;;;4.75;84.59
76815;BME280;65768;49.906;19.384;2023-11-18T01:31:15;98305.13;;;5.02;83.90
76815;BME280;65768;49.906;19.384;2023-11-18T01:33:46;98302.84;;;5.07;84.10
76815;BME280;65768;49.906;19.384;2023-11-18T01:36:14;98306.50;;;4.87;84.39
76815;BME280;65768;49.906;19.384;2023-11-18T01:38:43;98306.70;;;5.03;84.23
76815;BME280;65768;49.906;19.384;2023-11-18T01:41:11;98309.80;;;4.95;84.13
76815;BME280;65768;49.906;19.384;2023-11-18T01:43:41;98309.11;;;4.95;84.61
76815;BME280;65768;49.906;19.384;2023-11-18T01:46:09;98294.92;;;5.09;83.97
76815;BME280;65768;49.906;19.384;2023-11-18T01:48:39;98304.77;;;4.87;84.81
76815;BME280;65768;49.906;19.384;2023-11-18T01:51:10;98304.52;;;5.05;83.91
76815;BME280;65768;49.906;19.384;2023-11-18T01:53:42;98305.66;;;5.03;84.63
76815;BME280;65768;49.906;19.384;2023-11-18T01:56:10;98303.45;;;5.26;83.44
76815;BME280;65768;49.906;19.384;2023-11-18T01:58:39;98301.15;;;5.02;84.20
76815;BME280;65768;49.906;19.384;2023-11-18T02:01:09;98304.36;;;4.84;85.19
76815;BME280;65768;49.906;19.384;2023-11-18T02:03:39;98302.30;;;4.99;84.89
76815;BME280;65768;49.906;19.384;2023-11-18T02:06:10;98302.32;;;5.00;84.72
76815;BME280;65768;49.906;19.384;2023-11-18T02:08:42;98302.67;;;5.00;84.74
76815;BME280;65768;49.906;19.384;2023-11-18T02:14:13;98306.42;;;5.13;84.17
76815;BME280;65768;49.906;19.384;2023-11-18T02:16:44;98304.66;;;5.26;83.75
76815;BME280;65768;49.906;19.384;2023-11-18T02:19:24;98303.73;;;5.23;84.06
76815;BME280;65768;49.906;19.384;2023-11-18T02:21:54;98302.47;;;5.22;84.13
76815;BME280;65768;49.906;19.384;2023-11-18T02:24:31;98307.82;;;5.21;83.83
76815;BME280;65768;49.906;19.384;2023-11-18T02:27:05;98307.84;;;5.07;84.11
76815;BME280;65768;49.906;19.384;2023-11-18T02:29:42;98311.78;;;5.13;83.95
76815;BME280;65768;49.906;19.384;2023-11-18T02:34:56;98313.90;;;4.93;84.66
76815;BME280;65768;49.906;19.384;2023-11-18T02:37:26;98316.13;;;4.78;85.13
76815;BME280;65768;49.906;19.384;2023-11-18T02:40:03;98311.27;;;5.13;84.07
76815;BME280;65768;49.906;19.384;2023-11-18T02:42:37;98312.73;;;5.31;83.35
76815;BME280;65768;49.906;19.384;2023-11-18T02:45:08;98317.09;;;5.18;83.19
76815;BME280;65768;49.906;19.384;2023-11-18T02:47:40;98319.73;;;4.91;84.06
76815;BME280;65768;49.906;19.384;2023-11-18T02:50:10;98318.64;;;5.04;83.83
76815;BME280;65768;49.906;19.384;2023-11-18T02:52:39;98316.59;;;5.12;83.47
76815;BME280;65768;49.906;19.384;2023-11-18T02:55:09;98318.52;;;5.05;84.15
76815;BME280;65768;49.906;19.384;2023-11-18T02:57:38;98320.24;;;5.06;83.75
76815;BME280;65768;49.906;19.384;2023-11-18T03:00:44;98323.13;;;5.04;84.11
76815;BME280;65768;49.906;19.384;2023-11-18T03:03:13;98327.00;;;5.29;83.14
76815;BME280;65768;49.906;19.384;2023-11-18T03:05:43;98324.45;;;5.08;83.52
76815;BME280;65768;49.906;19.384;2023-11-18T03:08:11;98326.42;;;5.12;83.78
76815;BME280;65768;49.906;19.384;2023-11-18T03:10:42;98325.58;;;5.50;82.28
76815;BME280;65768;49.906;19.384;2023-11-18T03:13:12;98328.80;;;5.25;82.35
76815;BME280;65768;49.906;19.384;2023-11-18T03:15:42;98336.98;;;5.19;82.60
76815;BME280;65768;49.906;19.384;2023-11-18T03:18:11;98345.57;;;4.89;83.54
76815;BME280;65768;49.906;19.384;2023-11-18T03:20:41;98345.20;;;5.30;82.37
76815;BME280;65768;49.906;19.384;2023-11-18T03:23:09;98351.61;;;5.55;81.77
76815;BME280;65768;49.906;19.384;2023-11-18T03:25:37;98354.05;;;5.32;81.77
76815;BME280;65768;49.906;19.384;2023-11-18T03:28:06;98355.07;;;5.10;82.27
76815;BME280;65768;49.906;19.384;2023-11-18T03:30:35;98354.98;;;5.13;82.68
76815;BME280;65768;49.906;19.384;2023-11-18T03:33:05;98354.93;;;5.11;82.11
76815;BME280;65768;49.906;19.384;2023-11-18T03:35:33;98360.43;;;4.96;82.90
76815;BME280;65768;49.906;19.384;2023-11-18T03:38:01;98359.05;;;4.96;82.78
76815;BME280;65768;49.906;19.384;2023-11-18T03:40:29;98358.02;;;4.96;82.52
76815;BME280;65768;49.906;19.384;2023-11-18T03:42:57;98365.05;;;4.80;83.04
76815;BME280;65768;49.906;19.384;2023-11-18T03:45:27;98361.92;;;5.01;82.41
76815;BME280;65768;49.906;19.384;2023-11-18T03:47:55;98353.23;;;4.85;82.25
76815;BME280;65768;49.906;19.384;2023-11-18T03:50:24;98364.27;;;4.92;82.31
76815;BME280;65768;49.906;19.384;2023-11-18T03:52:53;98366.98;;;5.02;81.98
76815;BME280;65768;49.906;19.384;2023-11-18T03:55:22;98365.22;;;5.15;81.69
76815;BME280;65768;49.906;19.384;2023-11-18T03:57:50;98366.40;;;4.93;82.43
76815;BME280;65768;49.906;19.384;2023-11-18T04:00:18;98371.75;;;4.93;83.10
76815;BME280;65768;49.906;19.384;2023-11-18T04:02:49;98356.73;;;4.66;83.59
76815;BME280;65768;49.906;19.384;2023-11-18T04:05:17;98372.79;;;4.59;84.20
76815;BME280;65768;49.906;19.384;2023-11-18T04:07:45;98366.63;;;5.09;83.14
76815;BME280;65768;49.906;19.384;2023-11-18T04:10:13;98368.47;;;5.36;82.42
76815;BME280;65768;49.906;19.384;2023-11-18T04:12:41;98368.32;;;5.00;82.87
76815;BME280;65768;49.906;19.384;2023-11-18T04:15:14;98370.09;;;5.16;82.67
76815;BME280;65768;49.906;19.384;2023-11-18T04:17:44;98369.19;;;5.08;82.85
76815;BME280;65768;49.906;19.384;2023-11-18T04:20:12;98372.11;;;5.07;83.06
76815;BME280;65768;49.906;19.384;2023-11-18T04:22:41;98371.20;;;4.91;83.41
76815;BME280;65768;49.906;19.384;2023-11-18T04:25:12;98377.52;;;4.96;83.43
76815;BME280;65768;49.906;19.384;2023-11-18T04:27:40;98374.58;;;5.03;83.26
76815;BME280;65768;49.906;19.384;2023-11-18T04:30:09;98365.88;;;5.21;82.39
76815;BME280;65768;49.906;19.384;2023-11-18T04:32:37;98371.77;;;4.94;83.31
76815;BME280;65768;49.906;19.384;2023-11-18T04:35:06;98373.52;;;5.01;83.24
76815;BME280;65768;49.906;19.384;2023-11-18T04:37:39;98362.73;;;5.05;83.36
76815;BME280;65768;49.906;19.384;2023-11-18T04:40:11;98376.23;;;5.14;82.92
76815;BME280;65768;49.906;19.384;2023-11-18T04:42:41;98372.59;;;5.06;83.56
76815;BME280;65768;49.906;19.384;2023-11-18T04:45:10;98372.17;;;4.75;83.93
76815;BME280;65768;49.906;19.384;2023-11-18T04:47:39;98373.71;;;5.02;83.73
76815;BME280;65768;49.906;19.384;2023-11-18T04:50:10;98376.89;;;5.19;83.32
76815;BME280;65768;49.906;19.384;2023-11-18T04:52:39;98380.94;;;5.08;82.92
76815;BME280;65768;49.906;19.384;2023-11-18T04:55:10;98363.90;;;4.90;83.60
76815;BME280;65768;49.906;19.384;2023-11-18T04:57:42;98384.80;;;5.04;83.75
76815;BME280;65768;49.906;19.384;2023-11-18T05:00:13;98382.03;;;5.24;83.50
76815;BME280;65768;49.906;19.384;2023-11-18T05:02:48;98386.42;;;5.13;83.55
76815;BME280;65768;49.906;19.384;2023-11-18T05:05:17;98384.75;;;4.94;83.86
76815;BME280;65768;49.906;19.384;2023-11-18T05:07:47;98385.10;;;5.02;83.97
76815;BME280;65768;49.906;19.384;2023-11-18T05:10:15;98387.16;;;4.87;84.45
76815;BME280;65768;49.906;19.384;2023-11-18T05:12:45;98389.27;;;4.89;84.46
76815;BME280;65768;49.906;19.384;2023-11-18T05:15:22;98389.15;;;4.97;84.20
76815;BME280;65768;49.906;19.384;2023-11-18T05:17:53;98388.71;;;4.67;84.98
76815;BME280;65768;49.906;19.384;2023-11-18T05:20:22;98391.38;;;4.84;85.03
76815;BME280;65768;49.906;19.384;2023-11-18T05:22:52;98395.58;;;4.79;85.09
76815;BME280;65768;49.906;19.384;2023-11-18T05:25:20;98395.96;;;4.87;84.84
76815;BME280;65768;49.906;19.384;2023-11-18T05:27:48;98393.52;;;4.99;84.32
76815;BME280;65768;49.906;19.384;2023-11-18T05:30:17;98395.23;;;4.79;85.19
76815;BME280;65768;49.906;19.384;2023-11-18T05:32:46;98397.89;;;4.95;85.00
76815;BME280;65768;49.906;19.384;2023-11-18T05:35:15;98396.69;;;4.95;84.09
76815;BME280;65768;49.906;19.384;2023-11-18T05:37:43;98384.13;;;4.97;83.34
76815;BME280;65768;49.906;19.384;2023-11-18T05:40:11;98392.69;;;5.22;82.48
76815;BME280;65768;49.906;19.384;2023-11-18T05:42:43;98398.08;;;5.23;82.78
76815;BME280;65768;49.906;19.384;2023-11-18T05:45:15;98396.36;;;5.23;82.61
76815;BME280;65768;49.906;19.384;2023-11-18T05:47:58;98402.19;;;5.15;81.83
76815;BME280;65768;49.906;19.384;2023-11-18T05:50:27;98400.00;;;5.46;81.14
76815;BME280;65768;49.906;19.384;2023-11-18T05:52:56;98403.48;;;5.55;80.96
76815;BME280;65768;49.906;19.384;2023-11-18T05:55:26;98409.05;;;5.27;81.54
76815;BME280;65768;49.906;19.384;2023-11-18T05:57:56;98406.50;;;5.43;80.94
76815;BME280;65768;49.906;19.384;2023-11-18T06:00:25;98407.65;;;5.26;81.34
76815;BME280;65768;49.906;19.384;2023-11-18T06:02:54;98408.46;;;5.31;82.07
76815;BME280;65768;49.906;19.384;2023-11-18T06:05:25;98411.39;;;5.10;83.20
76815;BME280;65768;49.906;19.384;2023-11-18T06:07:57;98410.88;;;5.38;82.33
76815;BME280;65768;49.906;19.384;2023-11-18T06:10:28;98414.17;;;5.17;82.64
76815;BME280;65768;49.906;19.384;2023-11-18T06:12:59;98416.52;;;5.08;82.92
76815;BME280;65768;49.906;19.384;2023-11-18T06:15:28;98416.10;;;5.39;82.06
76815;BME280;65768;49.906;19.384;2023-11-18T06:17:57;98420.41;;;5.04;82.91
76815;BME280;65768;49.906;19.384;2023-11-18T06:20:27;98428.03;;;5.12;83.09
76815;BME280;65768;49.906;19.384;2023-11-18T06:22:56;98432.63;;;5.44;82.07
76815;BME280;65768;49.906;19.384;2023-11-18T06:25:25;98435.84;;;5.28;82.35
76815;BME280;65768;49.906;19.384;2023-11-18T06:27:54;98441.00;;;5.26;83.14
76815;BME280;65768;49.906;19.384;2023-11-18T06:30:23;98441.55;;;5.34;82.62
76815;BME280;65768;49.906;19.384;2023-11-18T06:32:52;98444.95;;;5.46;82.34
76815;BME280;65768;49.906;19.384;2023-11-18T06:35:20;98436.29;;;5.45;82.22
76815;BME280;65768;49.906;19.384;2023-11-18T06:37:50;98443.46;;;5.42;82.36
76815;BME280;65768;49.906;19.384;2023-11-18T06:40:22;98445.09;;;5.52;82.24
76815;BME280;65768;49.906;19.384;2023-11-18T06:42:53;98449.14;;;5.63;82.21
76815;BME280;65768;49.906;19.384;2023-11-18T06:45:30;98451.50;;;5.59;81.96
76815;BME280;65768;49.906;19.384;2023-11-18T06:48:00;98450.14;;;5.26;82.78
76815;BME280;65768;49.906;19.384;2023-11-18T06:50:28;98453.61;;;5.61;82.12
76815;BME280;65768;49.906;19.384;2023-11-18T06:52:58;98445.83;;;5.61;82.04
76815;BME280;65768;49.906;19.384;2023-11-18T06:55:27;98456.85;;;5.52;82.13
76815;BME280;65768;49.906;19.384;2023-11-18T06:57:55;98457.98;;;5.55;82.22
76815;BME280;65768;49.906;19.384;2023-11-18T07:00:24;98466.40;;;5.68;81.76
76815;BME280;65768;49.906;19.384;2023-11-18T07:02:56;98464.43;;;5.30;82.11
76815;BME280;65768;49.906;19.384;2023-11-18T07:05:26;98466.95;;;4.88;83.23
76815;BME280;65768;49.906;19.384;2023-11-18T07:07:54;98463.28;;;4.92;83.40
76815;BME280;65768;49.906;19.384;2023-11-18T07:10:23;98474.58;;;5.35;82.39
76815;BME280;65768;49.906;19.384;2023-11-18T07:12:53;98481.39;;;4.98;83.44
76815;BME280;65768;49.906;19.384;2023-11-18T07:15:22;98483.31;;;5.12;82.91
76815;BME280;65768;49.906;19.384;2023-11-18T07:17:51;98481.55;;;4.97;82.98
76815;BME280;65768;49.906;19.384;2023-11-18T07:20:21;98483.40;;;5.02;83.15
76815;BME280;65768;49.906;19.384;2023-11-18T07:22:50;98486.33;;;5.21;82.69
76815;BME280;65768;49.906;19.384;2023-11-18T07:25:18;98486.73;;;5.17;82.57
76815;BME280;65768;49.906;19.384;2023-11-18T07:27:47;98487.11;;;5.12;82.67
76815;BME280;65768;49.906;19.384;2023-11-18T07:30:15;98483.71;;;5.27;82.03
76815;BME280;65768;49.906;19.384;2023-11-18T07:32:45;98492.98;;;5.31;81.97
76815;BME280;65768;49.906;19.384;2023-11-18T07:35:13;98485.30;;;5.09;81.35
76815;BME280;65768;49.906;19.384;2023-11-18T07:37:44;98502.83;;;5.18;81.74
76815;BME280;65768;49.906;19.384;2023-11-18T07:40:13;98506.66;;;5.53;81.24
76815;BME280;65768;49.906;19.384;2023-11-18T07:42:49;98505.38;;;5.30;80.69
76815;BME280;65768;49.906;19.384;2023-11-18T07:45:18;98520.81;;;4.99;80.96
76815;BME280;65768;49.906;19.384;2023-11-18T07:47:47;98517.06;;;5.41;80.12
76815;BME280;65768;49.906;19.384;2023-11-18T07:50:15;98516.66;;;5.45;80.05
76815;BME280;65768;49.906;19.384;2023-11-18T07:52:44;98514.86;;;5.49;79.90
76815;BME280;65768;49.906;19.384;2023-11-18T07:55:14;98509.55;;;5.64;79.91
76815;BME280;65768;49.906;19.384;2023-11-18T07:57:43;98523.10;;;5.74;80.33
76815;BME280;65768;49.906;19.384;2023-11-18T08:00:13;98526.38;;;5.60;80.15
76815;BME280;65768;49.906;19.384;2023-11-18T08:02:43;98530.95;;;5.63;79.78
76815;BME280;65768;49.906;19.384;2023-11-18T08:05:14;98537.43;;;5.60;79.07
76815;BME280;65768;49.906;19.384;2023-11-18T08:07:43;98543.05;;;5.70;79.13
76815;BME280;65768;49.906;19.384;2023-11-18T08:10:13;98542.25;;;5.58;79.29
76815;BME280;65768;49.906;19.384;2023-11-18T08:12:42;98543.96;;;5.72;78.24
76815;BME280;65768;49.906;19.384;2023-11-18T08:15:12;98546.61;;;5.81;78.10
76815;BME280;65768;49.906;19.384;2023-11-18T08:17:40;98537.65;;;5.89;76.96
76815;BME280;65768;49.906;19.384;2023-11-18T08:20:10;98543.38;;;5.83;77.30
76815;BME280;65768;49.906;19.384;2023-11-18T08:22:52;98543.31;;;5.60;77.27
76815;BME280;65768;49.906;19.384;2023-11-18T08:25:21;98544.89;;;5.54;77.81
76815;BME280;65768;49.906;19.384;2023-11-18T08:27:50;98545.19;;;5.38;78.23
76815;BME280;65768;49.906;19.384;2023-11-18T08:30:18;98547.67;;;5.48;78.46
76815;BME280;65768;49.906;19.384;2023-11-18T08:32:49;98535.76;;;5.34;78.13
76815;BME280;65768;49.906;19.384;2023-11-18T08:35:17;98549.92;;;5.54;77.50
76815;BME280;65768;49.906;19.384;2023-11-18T08:37:47;98554.10;;;5.56;77.15
76815;BME280;65768;49.906;19.384;2023-11-18T08:40:15;98556.77;;;5.65;77.59
76815;BME280;65768;49.906;19.384;2023-11-18T08:42:45;98559.48;;;5.70;77.53
76815;BME280;65768;49.906;19.384;2023-11-18T08:45:24;98558.79;;;5.70;77.62
76815;BME280;65768;49.906;19.384;2023-11-18T08:48:04;98554.39;;;5.40;77.97
76815;BME280;65768;49.906;19.384;2023-11-18T08:50:37;98546.86;;;5.29;78.61
76815;BME280;65768;49.906;19.384;2023-11-18T08:53:08;98561.61;;;5.45;78.72
76815;BME280;65768;49.906;19.384;2023-11-18T08:55:38;98566.56;;;5.63;78.48
76815;BME280;65768;49.906;19.384;2023-11-18T08:58:10;98563.65;;;5.44;78.57
76815;BME280;65768;49.906;19.384;2023-11-18T09:00:57;98562.94;;;5.43;78.95
76815;BME280;65768;49.906;19.384;2023-11-18T09:03:42;98567.33;;;5.52;78.99
76815;BME280;65768;49.906;19.384;2023-11-18T09:06:11;98559.77;;;5.14;79.62
76815;BME280;65768;49.906;19.384;2023-11-18T09:08:48;98566.40;;;5.42;78.99
76815;BME280;65768;49.906;19.384;2023-11-18T09:11:24;98566.31;;;5.33;78.73
76815;BME280;65768;49.906;19.384;2023-11-18T09:13:57;98571.50;;;5.33;78.97
76815;BME280;65768;49.906;19.384;2023-11-18T09:16:28;98572.79;;;5.30;78.74
76815;BME280;65768;49.906;19.384;2023-11-18T09:19:01;98571.73;;;5.41;78.54
76815;BME280;65768;49.906;19.384;2023-11-18T09:21:31;98575.25;;;5.64;77.11
76815;BME280;65768;49.906;19.384;2023-11-18T09:24:04;98557.86;;;5.68;76.93
76815;BME280;65768;49.906;19.384;2023-11-18T09:26:36;98574.73;;;6.05;76.13
76815;BME280;65768;49.906;19.384;2023-11-18T09:29:06;98579.48;;;6.02;76.01
76815;BME280;65768;49.906;19.384;2023-11-18T09:31:37;98579.55;;;5.97;76.54
76815;BME280;65768;49.906;19.384;2023-11-18T09:34:05;98587.99;;;5.95;76.57
76815;BME280;65768;49.906;19.384;2023-11-18T09:36:35;98576.11;;;6.12;76.33
76815;BME280;65768;49.906;19.384;2023-11-18T09:39:04;98590.38;;;5.68;75.50
76815;BME280;65768;49.906;19.384;2023-11-18T09:41:34;98595.10;;;6.03;75.25
76815;BME280;65768;49.906;19.384;2023-11-18T09:44:06;98602.14;;;5.87;74.35
76815;BME280;65768;49.906;19.384;2023-11-18T09:46:36;98603.72;;;5.49;75.89
76815;BME280;65768;49.906;19.384;2023-11-18T09:51:46;98616.55;;;4.94;77.32
76815;BME280;65768;49.906;19.384;2023-11-18T09:56:51;98621.23;;;4.95;78.42
76815;BME280;65768;49.906;19.384;2023-11-18T09:59:33;98620.75;;;4.61;79.18
76815;BME280;65768;49.906;19.384;2023-11-18T10:02:05;98618.30;;;4.78;79.89
76815;BME280;65768;49.906;19.384;2023-11-18T10:04:39;98625.66;;;4.63;80.25
76815;BME280;65768;49.906;19.384;2023-11-18T10:07:09;98626.39;;;4.54;81.06
76815;BME280;65768;49.906;19.384;2023-11-18T10:09:41;98629.83;;;4.48;80.43
76815;BME280;65768;49.906;19.384;2023-11-18T10:12:11;98636.19;;;4.52;81.30
76815;BME280;65768;49.906;19.384;2023-11-18T10:14:45;98638.21;;;4.68;80.24
76815;BME280;65768;49.906;19.384;2023-11-18T10:17:13;98645.19;;;4.64;79.93
76815;BME280;65768;49.906;19.384;2023-11-18T10:20:09;98648.26;;;4.80;79.72
76815;BME280;65768;49.906;19.384;2023-11-18T10:22:41;98649.20;;;4.77;79.95
76815;BME280;65768;49.906;19.384;2023-11-18T10:25:09;98660.91;;;4.37;80.68
76815;BME280;65768;49.906;19.384;2023-11-18T10:27:37;98665.05;;;4.21;80.02
76815;BME280;65768;49.906;19.384;2023-11-18T10:30:07;98663.30;;;4.36;79.38
76815;BME280;65768;49.906;19.384;2023-11-18T10:32:58;98670.86;;;4.19;79.78
76815;BME280;65768;49.906;19.384;2023-11-18T10:35:34;98675.43;;;4.22;80.25
76815;BME280;65768;49.906;19.384;2023-11-18T10:38:04;98670.23;;;4.48;79.36
76815;BME280;65768;49.906;19.384;2023-11-18T10:40:35;98669.17;;;4.37;79.08
76815;BME280;65768;49.906;19.384;2023-11-18T10:43:05;98673.69;;;4.65;78.95
76815;BME280;65768;49.906;19.384;2023-11-18T10:45:38;98676.67;;;4.50;78.54
76815;BME280;65768;49.906;19.384;2023-11-18T10:48:12;98681.95;;;4.53;77.71
76815;BME280;65768;49.906;19.384;2023-11-18T10:50:46;98676.32;;;4.71;77.64
76815;BME280;65768;49.906;19.384;2023-11-18T10:53:18;98685.64;;;4.71;77.40
76815;BME280;65768;49.906;19.384;2023-11-18T10:55:48;98687.70;;;4.77;76.23
76815;BME280;65768;49.906;19.384;2023-11-18T10:58:18;98694.36;;;4.86;76.40
76815;BME280;65768;49.906;19.384;2023-11-18T11:00:52;98695.75;;;4.69;77.05
76815;BME280;65768;49.906;19.384;2023-11-18T11:03:28;98692.55;;;4.77;76.39
76815;BME280;65768;49.906;19.384;2023-11-18T11:06:15;98699.84;;;4.51;76.74
76815;BME280;65768;49.906;19.384;2023-11-18T11:08:47;98676.06;;;4.58;75.93
76815;BME280;65768;49.906;19.384;2023-11-18T11:11:20;98702.77;;;4.78;75.42
76815;BME280;65768;49.906;19.384;2023-11-18T11:13:54;98711.57;;;4.45;75.32
76815;BME280;65768;49.906;19.384;2023-11-18T11:16:39;98711.94;;;4.57;76.83
76815;BME280;65768;49.906;19.384;2023-11-18T11:19:37;98719.00;;;4.30;75.44
76815;BME280;65768;49.906;19.384;2023-11-18T11:22:15;98720.20;;;4.30;75.57
76815;BME280;65768;49.906;19.384;2023-11-18T11:25:23;98720.67;;;4.33;76.10
76815;BME280;65768;49.906;19.384;2023-11-18T11:28:11;98725.08;;;4.52;75.95
76815;BME280;65768;49.906;19.384;2023-11-18T11:30:50;98732.95;;;4.55;75.81
76815;BME280;65768;49.906;19.384;2023-11-18T11:33:38;98740.92;;;4.40;75.64
76815;BME280;65768;49.906;19.384;2023-11-18T11:36:17;98741.98;;;4.41;75.88
76815;BME280;65768;49.906;19.384;2023-11-18T11:38:52;98750.71;;;4.23;76.17
76815;BME280;65768;49.906;19.384;2023-11-18T11:41:23;98749.15;;;4.13;76.47
76815;BME280;65768;49.906;19.384;2023-11-18T11:43:56;98756.88;;;4.32;75.53
76815;BME280;65768;49.906;19.384;2023-11-18T11:46:32;98752.30;;;4.34;75.94
76815;BME280;65768;49.906;19.384;2023-11-18T11:49:08;98758.34;;;4.40;76.19
76815;BME280;65768;49.906;19.384;2023-11-18T11:54:43;98760.16;;;4.12;75.11
76815;BME280;65768;49.906;19.384;2023-11-18T11:57:13;98763.16;;;4.24;74.50
76815;BME280;65768;49.906;19.384;2023-11-18T12:02:15;98777.77;;;4.53;73.05
76815;BME280;65768;49.906;19.384;2023-11-18T12:04:45;98776.63;;;4.55;72.65
76815;BME280;65768;49.906;19.384;2023-11-18T12:07:30;98779.30;;;4.48;72.56
76815;BME280;65768;49.906;19.384;2023-11-18T12:10:03;98787.27;;;4.58;72.25
76815;BME280;65768;49.906;19.384;2023-11-18T12:12:35;98789.39;;;4.70;72.02
76815;BME280;65768;49.906;19.384;2023-11-18T12:15:04;98793.21;;;4.66;71.79
76815;BME280;65768;49.906;19.384;2023-11-18T12:20:40;98791.23;;;4.64;71.01
76815;BME280;65768;49.906;19.384;2023-11-18T12:23:31;98791.48;;;4.65;70.63
76815;BME280;65768;49.906;19.384;2023-11-18T12:26:38;98794.49;;;4.73;70.46
76815;BME280;65768;49.906;19.384;2023-11-18T12:29:32;98794.91;;;4.81;69.89
76815;BME280;65768;49.906;19.384;2023-11-18T12:32:02;98800.88;;;4.84;70.58
76815;BME280;65768;49.906;19.384;2023-11-18T12:34:52;98799.87;;;4.84;70.84
76815;BME280;65768;49.906;19.384;2023-11-18T12:37:47;98807.63;;;4.74;70.74
76815;BME280;65768;49.906;19.384;2023-11-18T12:46:50;98813.20;;;4.69;69.62
76815;BME280;65768;49.906;19.384;2023-11-18T12:49:23;98816.67;;;4.70;70.13
76815;BME280;65768;49.906;19.384;2023-11-18T12:51:56;98824.02;;;4.73;70.28
76815;BME280;65768;49.906;19.384;2023-11-18T12:54:26;98826.73;;;4.62;71.15
76815;BME280;65768;49.906;19.384;2023-11-18T12:57:00;98828.77;;;4.50;70.74
76815;BME280;65768;49.906;19.384;2023-11-18T12:59:30;98834.94;;;4.54;71.03
76815;BME280;65768;49.906;19.384;2023-11-18T13:01:59;98833.88;;;4.69;70.98
76815;BME280;65768;49.906;19.384;2023-11-18T13:04:32;98835.79;;;4.64;70.67
76815;BME280;65768;49.906;19.384;2023-11-18T13:07:02;98839.08;;;4.54;70.74
76815;BME280;65768;49.906;19.384;2023-11-18T13:09:32;98847.90;;;4.59;70.40
76815;BME280;65768;49.906;19.384;2023-11-18T13:12:05;98844.54;;;4.32;70.72
76815;BME280;65768;49.906;19.384;2023-11-18T13:14:38;98844.64;;;4.45;71.15
76815;BME280;65768;49.906;19.384;2023-11-18T13:17:10;98839.68;;;4.67;71.06
76815;BME280;65768;49.906;19.384;2023-11-18T13:19:44;98836.98;;;4.58;70.61
76815;BME280;65768;49.906;19.384;2023-11-18T13:22:14;98837.55;;;4.59;70.05
76815;BME280;65768;49.906;19.384;2023-11-18T13:24:44;98848.27;;;4.50;70.68
76815;BME280;65768;49.906;19.384;2023-11-18T13:27:18;98847.98;;;4.47;71.51
76815;BME280;65768;49.906;19.384;2023-11-18T13:29:48;98854.48;;;4.60;70.95
76815;BME280;65768;49.906;19.384;2023-11-18T13:32:22;98865.04;;;4.61;70.72
76815;BME280;65768;49.906;19.384;2023-11-18T13:34:52;98874.45;;;4.68;71.57
76815;BME280;65768;49.906;19.384;2023-11-18T13:37:22;98874.00;;;4.45;71.19
76815;BME280;65768;49.906;19.384;2023-11-18T13:39:55;98883.55;;;4.28;72.14
76815;BME280;65768;49.906;19.384;2023-11-18T13:42:25;98883.85;;;4.56;71.62
76815;BME280;65768;49.906;19.384;2023-11-18T13:45:05;98883.77;;;4.53;71.41
76815;BME280;65768;49.906;19.384;2023-11-18T13:47:49;98889.21;;;4.46;71.46
76815;BME280;65768;49.906;19.384;2023-11-18T13:50:19;98891.02;;;4.58;71.92